Dataw Island, South Carolina
Current Conditions -  °F | °C
As of 1:55 AM on Thursday 27 Nov 2014 (Local Time) from KARW Reporting Station
Clear Clear  
Wind Chill: 43°   Ceiling: Unl
Heat Index: 46°   Visibility: 7mi
Dew Point: 39°   Wind: 7mph
Humidity: 76%   Direction: 230°SW
Pressure: 30.13"   Gusts: NA
Location:  32.3871°N, 80.5485°W
Report Text: KARW 270655Z AUTO 23006KT 7SM CLR 08/04 A3013 RMK AO2
Loading
Personal Weather Stations






























Interactive Weather Map New forecast layout! Learn more

10-Day Weather Forecast

Advertisements
Track Severe Weather on mobile